Time;durP1;ratioP1;P1;durP2;ratioP2;P2;SDS_P1;SDS_P2;PMS_P1;PMS_P2;Temp;Humidity;BMP_temperature;BMP_pressure;BME280_temperature;BME280_humidity;BME280_pressure;Samples;Min_cycle;Max_cycle;Signal;HPM_P1;HPM_P2
2021/03/07 00:01:31;;;;;;;14.48;9.57;;;1.80;99.90;;;;;;6274679;22;20011;-73
2021/03/07 00:03:57;;;;;;;17.83;10.63;;;1.80;99.90;;;;;;6271179;22;20419;-72
2021/03/07 00:06:23;;;;;;;17.50;9.73;;;1.80;99.90;;;;;;6271014;22;20015;-69
2021/03/07 00:08:49;;;;;;;14.00;10.07;;;1.70;99.90;;;;;;6270630;22;20003;-73
2021/03/07 00:11:14;;;;;;;17.85;10.00;;;1.70;99.90;;;;;;6271669;22;20007;-71
2021/03/07 00:13:40;;;;;;;15.57;9.95;;;1.80;99.90;;;;;;6273321;22;20421;-73
2021/03/07 00:16:06;;;;;;;14.45;9.65;;;1.80;99.90;;;;;;6272580;22;20332;-73
2021/03/07 00:18:31;;;;;;;15.63;9.48;;;1.70;99.90;;;;;;6274296;22;20460;-73
2021/03/07 00:20:57;;;;;;;13.95;9.10;;;1.70;99.90;;;;;;6274605;22;20094;-72
2021/03/07 00:23:23;;;;;;;15.23;9.27;;;1.70;99.90;;;;;;6274827;22;20062;-72
2021/03/07 00:25:48;;;;;;;18.17;9.48;;;1.70;99.90;;;;;;6273392;22;20057;-72
2021/03/07 00:28:14;;;;;;;16.27;9.52;;;1.70;99.90;;;;;;6269112;22;20008;-73
2021/03/07 00:30:39;;;;;;;16.58;10.13;;;1.80;99.90;;;;;;6271157;22;20118;-72
2021/03/07 00:33:05;;;;;;;14.73;10.75;;;1.80;99.90;;;;;;6273381;22;20071;-72
2021/03/07 00:35:31;;;;;;;19.00;9.63;;;1.70;99.90;;;;;;6270342;22;20004;-73
2021/03/07 00:37:56;;;;;;;19.65;11.13;;;1.60;99.90;;;;;;6272611;22;20722;-70
2021/03/07 00:40:22;;;;;;;18.90;11.18;;;1.60;99.90;;;;;;6273911;22;20004;-73
2021/03/07 00:42:49;;;;;;;18.73;10.93;;;1.60;99.90;;;;;;6271253;22;20015;-73
2021/03/07 00:45:16;;;;;;;15.15;10.23;;;1.60;99.90;;;;;;6273149;22;20023;-72
2021/03/07 00:47:42;;;;;;;18.25;11.00;;;1.60;99.90;;;;;;6274099;22;20010;-72
2021/03/07 00:50:09;;;;;;;20.30;11.55;;;1.50;99.90;;;;;;6274040;22;20014;-72
2021/03/07 00:52:35;;;;;;;18.85;12.45;;;1.60;99.90;;;;;;6272368;22;20429;-72
2021/03/07 00:55:01;;;;;;;17.75;11.32;;;1.60;99.90;;;;;;6273524;22;20000;-71
2021/03/07 00:57:27;;;;;;;17.55;11.55;;;1.50;99.90;;;;;;6274415;22;20461;-73
2021/03/07 00:59:52;;;;;;;17.92;10.70;;;1.50;99.90;;;;;;6270496;22;20014;-73
2021/03/07 01:02:18;;;;;;;19.88;10.70;;;1.40;99.90;;;;;;6274238;22;20035;-72
2021/03/07 01:04:43;;;;;;;18.38;11.82;;;1.40;99.90;;;;;;6272591;22;20007;-73
2021/03/07 01:07:10;;;;;;;15.90;11.20;;;1.40;99.90;;;;;;6273736;22;20002;-71
2021/03/07 01:09:36;;;;;;;16.17;10.82;;;1.40;99.90;;;;;;6271912;22;20011;-71
2021/03/07 01:12:05;;;;;;;15.63;10.80;;;1.40;99.90;;;;;;6275079;22;20006;-73
2021/03/07 01:14:32;;;;;;;17.50;10.52;;;1.30;99.90;;;;;;6272584;22;20000;-69
2021/03/07 01:16:58;;;;;;;17.40;11.30;;;1.30;99.90;;;;;;6274205;22;19999;-69
2021/03/07 01:19:34;;;;;;;21.65;11.40;;;1.30;99.90;;;;;;6273754;22;20030;-69
2021/03/07 01:22:01;;;;;;;15.70;10.27;;;1.20;99.90;;;;;;6274373;22;20008;-69
2021/03/07 01:24:26;;;;;;;17.45;10.40;;;1.30;99.90;;;;;;6271463;22;20027;-72
2021/03/07 01:26:52;;;;;;;19.70;11.23;;;1.30;99.90;;;;;;6274514;22;20004;-69
2021/03/07 01:29:18;;;;;;;16.90;10.52;;;1.30;99.90;;;;;;6272135;22;20020;-69
2021/03/07 01:31:43;;;;;;;16.33;11.00;;;1.30;99.90;;;;;;6272504;22;20449;-69
2021/03/07 01:34:09;;;;;;;15.98;10.82;;;1.30;99.90;;;;;;6273683;22;20011;-70
2021/03/07 01:36:35;;;;;;;16.50;11.02;;;1.30;99.90;;;;;;6272422;22;20000;-71
2021/03/07 01:39:01;;;;;;;14.15;9.55;;;1.30;99.90;;;;;;6273694;22;20004;-72
2021/03/07 01:41:26;;;;;;;14.13;10.15;;;1.40;99.90;;;;;;6272921;22;20026;-69
2021/03/07 01:43:53;;;;;;;14.05;9.60;;;1.50;99.90;;;;;;6272946;22;20004;-72
2021/03/07 01:46:19;;;;;;;14.02;9.68;;;1.40;99.90;;;;;;6271187;22;20070;-73
2021/03/07 01:48:45;;;;;;;15.40;10.48;;;1.40;99.90;;;;;;6271390;22;20425;-69
2021/03/07 01:51:13;;;;;;;15.52;10.52;;;1.40;99.90;;;;;;6267524;22;20011;-72
2021/03/07 01:53:39;;;;;;;14.85;10.48;;;1.40;99.90;;;;;;6273556;22;20081;-70
2021/03/07 01:56:10;;;;;;;18.45;10.50;;;1.30;99.90;;;;;;6273758;22;20003;-71
2021/03/07 01:58:37;;;;;;;15.00;9.18;;;1.30;99.90;;;;;;6271449;22;20040;-68
2021/03/07 02:01:05;;;;;;;17.98;10.10;;;1.20;99.90;;;;;;6272752;22;20014;-69
2021/03/07 02:03:31;;;;;;;14.65;9.65;;;1.20;99.90;;;;;;6271627;22;20025;-69
2021/03/07 02:05:56;;;;;;;15.95;10.27;;;1.20;99.90;;;;;;6266558;22;20014;-71
2021/03/07 02:08:22;;;;;;;14.95;9.20;;;1.20;99.90;;;;;;6273818;22;20008;-71
2021/03/07 02:11:00;;;;;;;15.60;9.13;;;1.20;99.90;;;;;;6271112;22;20060;-68
2021/03/07 02:13:41;;;;;;;16.40;9.55;;;1.20;99.90;;;;;;6271264;22;20696;-69
2021/03/07 02:16:22;;;;;;;13.65;9.55;;;1.20;99.90;;;;;;6269273;22;20031;-72
2021/03/07 02:18:51;;;;;;;16.07;10.60;;;1.20;99.90;;;;;;6269376;22;20004;-68
2021/03/07 02:21:30;;;;;;;20.17;10.82;;;1.20;99.90;;;;;;6272342;22;20238;-72
2021/03/07 02:24:12;;;;;;;19.92;10.73;;;1.20;99.90;;;;;;6271696;22;20004;-73
2021/03/07 02:26:49;;;;;;;15.25;10.32;;;1.20;99.90;;;;;;6271907;22;20014;-73
2021/03/07 02:29:17;;;;;;;14.68;10.50;;;1.20;99.90;;;;;;6271000;22;20069;-73
2021/03/07 02:31:48;;;;;;;16.98;10.35;;;1.20;99.90;;;;;;6271768;22;20451;-72
2021/03/07 02:34:19;;;;;;;16.30;10.25;;;1.20;99.90;;;;;;6273341;22;20010;-72
2021/03/07 02:36:52;;;;;;;16.40;10.73;;;1.20;99.90;;;;;;6269447;22;20476;-73
2021/03/07 02:39:20;;;;;;;14.43;10.00;;;1.20;99.90;;;;;;6270706;22;20475;-72
2021/03/07 02:41:46;;;;;;;16.30;9.70;;;1.20;99.90;;;;;;6270679;22;20004;-72
2021/03/07 02:44:15;;;;;;;16.60;10.48;;;1.10;99.90;;;;;;6271833;22;20014;-71
2021/03/07 02:46:42;;;;;;;16.45;11.15;;;1.10;99.90;;;;;;6272432;22;20007;-70
2021/03/07 02:49:12;;;;;;;17.13;11.25;;;1.00;99.90;;;;;;6273022;22;20090;-72
2021/03/07 02:51:39;;;;;;;17.13;11.68;;;1.00;99.90;;;;;;6269671;22;20045;-73
2021/03/07 02:54:07;;;;;;;17.77;10.98;;;1.00;99.90;;;;;;6272735;22;20381;-72
2021/03/07 02:56:36;;;;;;;17.95;11.55;;;1.00;99.90;;;;;;6272505;22;20011;-72
2021/03/07 02:59:07;;;;;;;19.17;10.38;;;1.00;99.90;;;;;;6270430;22;20586;-73
2021/03/07 03:01:33;;;;;;;19.08;11.35;;;1.10;99.90;;;;;;6273144;22;20000;-73
2021/03/07 03:04:00;;;;;;;18.70;11.73;;;1.10;99.90;;;;;;6271569;22;20007;-73
2021/03/07 03:06:28;;;;;;;20.20;11.90;;;1.10;99.90;;;;;;6273428;22;20074;-69
2021/03/07 03:08:56;;;;;;;16.90;12.05;;;1.10;99.90;;;;;;6272492;22;20309;-72
2021/03/07 03:11:26;;;;;;;19.23;11.73;;;1.10;99.90;;;;;;6273778;22;20007;-72
2021/03/07 03:13:52;;;;;;;21.25;12.85;;;1.10;99.90;;;;;;6269932;22;20012;-69
2021/03/07 03:16:27;;;;;;;23.77;12.95;;;1.10;99.90;;;;;;6273926;22;20007;-71
2021/03/07 03:18:54;;;;;;;18.73;11.55;;;1.10;99.90;;;;;;6274021;22;19999;-70
2021/03/07 03:21:20;;;;;;;22.88;12.73;;;1.10;99.90;;;;;;6273422;22;20004;-69
2021/03/07 03:23:47;;;;;;;20.85;13.18;;;1.10;99.90;;;;;;6273005;22;20004;-68
2021/03/07 03:26:12;;;;;;;19.45;11.73;;;1.10;99.90;;;;;;6274265;22;20095;-67
2021/03/07 03:28:39;;;;;;;23.38;13.15;;;1.10;99.90;;;;;;6273403;22;20444;-69
2021/03/07 03:31:04;;;;;;;22.65;13.98;;;1.10;99.90;;;;;;6271800;22;20030;-70
2021/03/07 03:33:30;;;;;;;20.58;13.30;;;1.10;99.90;;;;;;6275104;22;20516;-72
2021/03/07 03:35:56;;;;;;;19.05;12.25;;;1.10;99.90;;;;;;6276534;22;20004;-69
2021/03/07 03:38:29;;;;;;;18.00;12.95;;;1.10;99.90;;;;;;6272926;22;20332;-69
2021/03/07 03:40:57;;;;;;;23.40;14.45;;;1.10;99.90;;;;;;6275530;22;20003;-69
2021/03/07 03:43:24;;;;;;;18.50;13.23;;;1.20;99.90;;;;;;6275966;22;20464;-68
2021/03/07 03:45:55;;;;;;;22.45;13.60;;;1.10;99.90;;;;;;6275308;22;20007;-68
2021/03/07 03:48:25;;;;;;;22.65;14.13;;;1.10;99.90;;;;;;6276488;22;20007;-68
2021/03/07 03:50:52;;;;;;;21.63;14.10;;;1.00;99.90;;;;;;6276489;22;20101;-68
2021/03/07 03:53:20;;;;;;;26.27;14.63;;;1.10;99.90;;;;;;6275777;22;20466;-68
2021/03/07 03:55:48;;;;;;;22.10;14.90;;;1.10;99.90;;;;;;6273293;22;20004;-68
2021/03/07 03:58:16;;;;;;;21.10;13.30;;;1.00;99.90;;;;;;6275884;22;20007;-68
2021/03/07 04:00:43;;;;;;;25.38;14.25;;;1.00;99.90;;;;;;6272788;22;20000;-67
2021/03/07 04:03:16;;;;;;;20.77;14.07;;;1.00;99.90;;;;;;6275773;22;20003;-68
2021/03/07 04:05:46;;;;;;;24.95;14.88;;;1.00;99.90;;;;;;6272497;22;20083;-70
2021/03/07 04:08:17;;;;;;;22.85;14.43;;;1.00;99.90;;;;;;6275274;22;20006;-68
2021/03/07 04:10:44;;;;;;;25.23;15.27;;;1.00;99.90;;;;;;6273082;22;20057;-67
2021/03/07 04:13:17;;;;;;;21.48;13.55;;;1.00;99.90;;;;;;6271937;22;20000;-69
2021/03/07 04:15:43;;;;;;;;;;;1.00;99.90;;;;;;6275925;22;20004;-68
2021/03/07 04:18:14;;;;;;;25.88;14.25;;;1.00;99.90;;;;;;6274959;22;19899;-71
2021/03/07 04:20:40;;;;;;;26.60;14.60;;;1.00;99.90;;;;;;6275870;22;20004;-71
2021/03/07 04:23:06;;;;;;;24.70;14.35;;;0.90;99.90;;;;;;6272606;22;20344;-68
2021/03/07 04:25:31;;;;;;;21.90;14.07;;;0.90;99.90;;;;;;6274465;22;20010;-67
2021/03/07 04:27:57;;;;;;;24.08;15.63;;;0.90;99.90;;;;;;6274866;22;20075;-69
2021/03/07 04:30:23;;;;;;;25.92;14.63;;;0.90;99.90;;;;;;6275384;22;20021;-67
2021/03/07 04:32:51;;;;;;;24.35;14.27;;;0.90;99.90;;;;;;6275719;22;20026;-69
2021/03/07 04:35:17;;;;;;;22.52;14.38;;;0.90;99.90;;;;;;6275541;22;20023;-68
2021/03/07 04:37:43;;;;;;;18.92;13.45;;;0.80;99.90;;;;;;6274630;22;20363;-68
2021/03/07 04:40:09;;;;;;;20.75;12.60;;;0.80;99.90;;;;;;6274256;22;20118;-67
2021/03/07 04:42:35;;;;;;;24.08;13.70;;;0.80;99.90;;;;;;6274274;22;20133;-67
2021/03/07 04:45:03;;;;;;;22.45;13.95;;;0.80;99.90;;;;;;6274374;22;20306;-67
2021/03/07 04:47:29;;;;;;;24.23;14.13;;;0.80;99.90;;;;;;6273811;22;20000;-72
2021/03/07 04:49:55;;;;;;;27.00;13.75;;;0.70;99.90;;;;;;6275223;22;20012;-68
2021/03/07 04:52:20;;;;;;;26.02;15.45;;;0.70;99.90;;;;;;6273422;22;20006;-70
2021/03/07 04:54:46;;;;;;;26.38;16.05;;;0.70;99.90;;;;;;6275354;22;20034;-67
2021/03/07 04:57:12;;;;;;;22.40;14.05;;;0.70;99.90;;;;;;6275765;22;20352;-68
2021/03/07 04:59:37;;;;;;;24.80;14.63;;;0.60;99.90;;;;;;6275410;22;20011;-73
2021/03/07 05:02:03;;;;;;;25.73;14.23;;;0.70;99.90;;;;;;6275395;22;20027;-68
2021/03/07 05:04:29;;;;;;;23.90;13.52;;;0.60;99.90;;;;;;6272314;22;20000;-68
2021/03/07 05:06:55;;;;;;;23.00;14.45;;;0.60;99.90;;;;;;6274638;22;20027;-71
2021/03/07 05:09:20;;;;;;;25.40;13.35;;;0.70;99.90;;;;;;6275050;22;20012;-73
2021/03/07 05:11:46;;;;;;;21.95;13.98;;;0.60;99.90;;;;;;6275133;22;20031;-69
2021/03/07 05:14:12;;;;;;;19.95;13.30;;;0.60;99.90;;;;;;6274653;22;19999;-68
2021/03/07 05:16:37;;;;;;;23.33;13.98;;;0.60;99.90;;;;;;6274010;22;20023;-67
2021/03/07 05:19:04;;;;;;;22.20;13.90;;;0.60;99.90;;;;;;6273114;22;20011;-68
2021/03/07 05:21:30;;;;;;;24.85;13.63;;;0.60;99.90;;;;;;6271193;22;20421;-67
2021/03/07 05:23:56;;;;;;;21.85;13.43;;;0.60;99.90;;;;;;6272291;22;20010;-70
2021/03/07 05:26:22;;;;;;;23.50;15.68;;;0.60;99.90;;;;;;6271754;22;20057;-68
2021/03/07 05:28:48;;;;;;;24.35;14.95;;;0.60;99.90;;;;;;6272115;22;20012;-73
2021/03/07 05:31:15;;;;;;;29.50;15.95;;;0.60;99.90;;;;;;6275044;22;20053;-73
2021/03/07 05:33:40;;;;;;;21.42;14.30;;;0.50;99.90;;;;;;6274108;22;20491;-70
2021/03/07 05:36:06;;;;;;;23.48;14.75;;;0.50;99.90;;;;;;6271924;22;20000;-68
2021/03/07 05:38:32;;;;;;;26.23;15.10;;;0.60;99.90;;;;;;6274440;22;20006;-70
2021/03/07 05:40:58;;;;;;;32.20;14.95;;;0.50;99.90;;;;;;6274468;22;20008;-71
2021/03/07 05:43:25;;;;;;;27.33;15.13;;;0.60;99.90;;;;;;6274757;22;19999;-69
2021/03/07 05:45:51;;;;;;;22.70;14.52;;;0.60;99.90;;;;;;6269750;22;20030;-69
2021/03/07 05:48:17;;;;;;;25.00;14.77;;;0.60;99.90;;;;;;6272582;22;20004;-71
2021/03/07 05:50:43;;;;;;;22.58;13.68;;;0.50;99.90;;;;;;6273890;22;20505;-68
2021/03/07 05:53:08;;;;;;;23.58;14.70;;;0.50;99.90;;;;;;6272986;22;20087;-67
2021/03/07 05:55:35;;;;;;;23.90;13.80;;;0.50;99.90;;;;;;6270466;22;20027;-72
2021/03/07 05:58:02;;;;;;;22.50;13.88;;;0.50;99.90;;;;;;6274487;22;20101;-69
2021/03/07 06:00:28;;;;;;;28.02;15.25;;;0.60;99.90;;;;;;6274110;22;20004;-67
2021/03/07 06:02:54;;;;;;;25.48;14.45;;;0.60;99.90;;;;;;6272687;22;20000;-68
2021/03/07 06:05:20;;;;;;;26.50;14.82;;;0.60;99.90;;;;;;6273329;22;20008;-72
2021/03/07 06:07:47;;;;;;;23.65;13.70;;;0.50;99.90;;;;;;6273630;22;20027;-68
2021/03/07 06:10:14;;;;;;;20.95;13.40;;;0.50;99.90;;;;;;6274028;22;20433;-72
2021/03/07 06:12:42;;;;;;;26.50;15.15;;;0.60;99.90;;;;;;6273714;22;20691;-71
2021/03/07 06:15:09;;;;;;;23.45;14.05;;;0.60;99.90;;;;;;6273860;22;20010;-69
2021/03/07 06:17:45;;;;;;;25.08;14.82;;;0.60;99.90;;;;;;6275558;22;20000;-72
2021/03/07 06:20:13;;;;;;;27.67;14.23;;;0.70;99.90;;;;;;6274251;22;20000;-69
2021/03/07 06:22:49;;;;;;;39.60;17.63;;;0.70;99.90;;;;;;6274524;22;20086;-73
2021/03/07 06:25:15;;;;;;;34.70;16.50;;;0.70;99.90;;;;;;6269400;22;20011;-72
2021/03/07 06:27:40;;;;;;;40.05;18.75;;;0.80;99.90;;;;;;6274190;22;20008;-72
2021/03/07 06:30:15;;;;;;;67.07;21.20;;;0.80;99.90;;;;;;6274286;22;20408;-72
2021/03/07 06:32:51;;;;;;;50.63;21.92;;;0.90;99.90;;;;;;6274458;22;20000;-72
2021/03/07 06:35:28;;;;;;;48.70;20.42;;;0.90;99.90;;;;;;6273854;22;20433;-72
2021/03/07 06:38:08;;;;;;;67.72;20.67;;;0.90;99.90;;;;;;6272147;22;20004;-69
2021/03/07 06:40:43;;;;;;;63.30;22.60;;;1.00;99.90;;;;;;6272027;22;20404;-73
2021/03/07 06:43:26;;;;;;;61.55;23.15;;;1.10;99.90;;;;;;6271357;22;20000;-72
2021/03/07 06:45:52;;;;;;;62.15;22.83;;;1.10;99.90;;;;;;6273823;22;19996;-72
2021/03/07 06:48:18;;;;;;;70.05;23.50;;;1.10;99.90;;;;;;6274119;22;20010;-72
2021/03/07 06:50:56;;;;;;;57.42;22.45;;;1.10;99.90;;;;;;6272565;22;20011;-72
2021/03/07 06:53:48;;;;;;;60.38;24.08;;;1.10;99.90;;;;;;6274550;22;20007;-71
2021/03/07 06:56:13;;;;;;;57.55;22.13;;;1.20;99.90;;;;;;6270491;22;20082;-70
2021/03/07 06:58:39;;;;;;;87.88;27.80;;;1.20;99.90;;;;;;6272860;22;20003;-73
2021/03/07 07:01:16;;;;;;;141.98;30.98;;;1.20;99.90;;;;;;6271836;22;20079;-73
2021/03/07 07:03:56;;;;;;;159.63;36.03;;;1.20;99.90;;;;;;6268294;22;20541;-73
2021/03/07 07:06:22;;;;;;;162.23;36.17;;;1.20;99.90;;;;;;6270846;22;20079;-73
2021/03/07 07:08:48;;;;;;;160.07;34.90;;;1.30;99.90;;;;;;6273809;22;20039;-73
2021/03/07 07:11:13;;;;;;;191.35;37.60;;;1.30;99.90;;;;;;6272438;22;20054;-72
2021/03/07 07:13:43;;;;;;;770.13;92.60;;;1.30;99.90;;;;;;6268252;22;20004;-71
2021/03/07 07:16:10;;;;;;;105.65;30.98;;;1.30;99.90;;;;;;6275285;22;20003;-73
2021/03/07 07:18:38;;;;;;;91.15;30.05;;;1.40;99.90;;;;;;6272711;22;20078;-72
2021/03/07 07:21:07;;;;;;;122.88;32.70;;;1.40;99.90;;;;;;6275493;22;20010;-73
2021/03/07 07:23:33;;;;;;;104.32;30.08;;;1.40;99.90;;;;;;6273511;22;20008;-73
2021/03/07 07:25:59;;;;;;;149.88;33.00;;;1.40;99.90;;;;;;6276624;22;20016;-73
2021/03/07 07:28:26;;;;;;;131.13;35.92;;;1.50;99.90;;;;;;6273721;22;19999;-73
2021/03/07 07:31:18;;;;;;;121.95;33.83;;;1.50;99.90;;;;;;6276001;22;20008;-74
2021/03/07 07:33:49;;;;;;;174.77;37.35;;;1.60;99.90;;;;;;6234432;22;20011;-73
2021/03/07 07:36:28;;;;;;;145.85;32.78;;;1.50;99.90;;;;;;6272357;22;20317;-73
2021/03/07 07:38:56;;;;;;;72.05;27.77;;;1.50;99.90;;;;;;6274678;22;20437;-74
2021/03/07 07:41:31;;;;;;;98.90;29.63;;;1.60;99.90;;;;;;6276802;22;20079;-73
2021/03/07 07:43:58;;;;;;;124.40;30.58;;;1.60;99.90;;;;;;6276209;22;20000;-73
2021/03/07 07:46:24;;;;;;;109.22;33.35;;;1.60;99.90;;;;;;6273537;22;20023;-70
2021/03/07 07:48:49;;;;;;;152.77;32.50;;;1.60;99.90;;;;;;6275818;22;20011;-73
2021/03/07 07:51:38;;;;;;;154.52;37.50;;;1.60;99.90;;;;;;6276140;22;19996;-73
2021/03/07 07:54:06;;;;;;;78.13;27.90;;;1.60;99.90;;;;;;6275384;22;20007;-72
2021/03/07 07:56:37;;;;;;;102.18;31.98;;;1.70;99.90;;;;;;6276056;22;20066;-73
2021/03/07 07:59:04;;;;;;;70.43;29.60;;;1.80;99.90;;;;;;6271654;22;20004;-73
2021/03/07 08:01:50;;;;;;;70.00;25.27;;;1.80;99.90;;;;;;6273681;22;20014;-74
2021/03/07 08:04:28;;;;;;;69.15;27.20;;;1.80;99.90;;;;;;6275644;22;20011;-73
2021/03/07 08:06:56;;;;;;;338.05;54.70;;;1.90;99.90;;;;;;6275750;22;19996;-70
2021/03/07 08:09:45;;;;;;;69.53;28.33;;;1.90;99.90;;;;;;6273293;22;20015;-68
2021/03/07 08:12:41;;;;;;;68.07;24.98;;;2.00;99.90;;;;;;6272885;22;20007;-70
2021/03/07 08:15:25;;;;;;;61.13;25.73;;;1.90;99.90;;;;;;6262824;22;20424;-70
2021/03/07 08:17:59;;;;;;;81.53;25.55;;;2.00;99.90;;;;;;6274770;22;20039;-71
2021/03/07 08:20:40;;;;;;;46.10;23.00;;;2.10;99.90;;;;;;6273503;22;20032;-72
2021/03/07 08:23:12;;;;;;;61.92;26.95;;;2.10;99.90;;;;;;6272431;22;20018;-72
2021/03/07 08:25:57;;;;;;;41.78;22.63;;;2.20;99.90;;;;;;6275266;22;20425;-72
2021/03/07 08:28:25;;;;;;;45.30;23.95;;;2.30;99.90;;;;;;6274543;22;20474;-72
2021/03/07 08:30:55;;;;;;;47.42;23.13;;;2.30;99.90;;;;;;6274410;22;20008;-72
2021/03/07 08:33:38;;;;;;;54.03;25.27;;;2.40;99.90;;;;;;6274949;22;20007;-73
2021/03/07 08:36:18;;;;;;;48.42;21.65;;;2.40;99.90;;;;;;6275311;22;20440;-72
2021/03/07 08:38:53;;;;;;;38.20;19.90;;;2.40;99.90;;;;;;6274319;22;20003;-72
2021/03/07 08:41:32;;;;;;;48.58;22.65;;;2.50;99.90;;;;;;6274549;22;20000;-73
2021/03/07 08:43:59;;;;;;;48.72;22.35;;;2.50;99.90;;;;;;6274234;22;20079;-72
2021/03/07 08:46:28;;;;;;;43.53;24.23;;;2.70;99.90;;;;;;6274644;22;20004;-68
2021/03/07 08:49:05;;;;;;;50.90;24.08;;;2.70;99.90;;;;;;6273431;22;20019;-68
2021/03/07 08:51:36;;;;;;;49.80;25.15;;;2.70;99.90;;;;;;6275003;22;20004;-68
2021/03/07 08:54:04;;;;;;;39.30;22.42;;;2.80;99.90;;;;;;6272020;22;20078;-70
2021/03/07 08:56:30;;;;;;;38.00;21.80;;;2.80;99.90;;;;;;6276542;22;20329;-68
2021/03/07 08:58:56;;;;;;;39.83;21.23;;;2.90;99.90;;;;;;6272324;22;20008;-69
2021/03/07 09:01:23;;;;;;;39.97;21.40;;;2.70;99.90;;;;;;6274625;22;19999;-69
2021/03/07 09:03:57;;;;;;;40.08;22.10;;;2.80;99.90;;;;;;6275489;22;20079;-69
2021/03/07 09:06:33;;;;;;;43.85;25.65;;;2.80;99.90;;;;;;6272675;22;20089;-69
2021/03/07 09:09:10;;;;;;;43.97;25.58;;;2.90;99.90;;;;;;6273608;22;20527;-69
2021/03/07 09:11:44;;;;;;;41.33;23.23;;;3.10;99.90;;;;;;6267924;22;20000;-70
2021/03/07 09:14:09;;;;;;;36.58;22.13;;;3.20;99.90;;;;;;6269153;22;20646;-69
2021/03/07 09:16:47;;;;;;;37.80;21.67;;;3.30;99.90;;;;;;6275144;22;20001;-70
2021/03/07 09:19:26;;;;;;;37.78;21.83;;;3.30;99.90;;;;;;6268383;22;20012;-70
2021/03/07 09:22:12;;;;;;;35.15;21.15;;;3.40;99.90;;;;;;6273186;22;20007;-70
2021/03/07 09:24:47;;;;;;;37.25;21.02;;;3.40;99.90;;;;;;6271654;22;20027;-70
2021/03/07 09:27:14;;;;;;;34.80;20.67;;;3.50;99.90;;;;;;6274538;22;20015;-69
2021/03/07 09:30:07;;;;;;;38.10;21.92;;;3.50;99.90;;;;;;6270799;22;20012;-70
2021/03/07 09:32:45;;;;;;;31.15;19.98;;;3.50;99.90;;;;;;6273965;22;20000;-70
2021/03/07 09:35:20;;;;;;;38.47;20.98;;;3.50;99.90;;;;;;6271972;22;20083;-70
2021/03/07 09:38:04;;;;;;;30.67;19.90;;;3.60;99.90;;;;;;6273965;22;20163;-69
2021/03/07 09:40:38;;;;;;;30.92;18.15;;;3.70;99.90;;;;;;6274343;22;20078;-69
2021/03/07 09:43:08;;;;;;;28.13;16.95;;;3.90;99.90;;;;;;6274238;22;20003;-70
2021/03/07 09:45:38;;;;;;;25.70;15.57;;;4.10;99.90;;;;;;6274131;22;20060;-70
2021/03/07 09:48:05;;;;;;;24.63;15.50;;;4.00;99.90;;;;;;6272806;22;20456;-69
2021/03/07 09:50:31;;;;;;;28.30;16.63;;;4.10;99.90;;;;;;6273244;22;20019;-69
2021/03/07 09:52:57;;;;;;;26.63;15.68;;;4.10;99.90;;;;;;6270637;22;20509;-69
2021/03/07 09:55:26;;;;;;;24.55;15.73;;;4.00;99.90;;;;;;6273117;22;20004;-69
2021/03/07 09:58:02;;;;;;;27.95;16.25;;;4.10;99.90;;;;;;6274052;22;20110;-69
2021/03/07 10:00:29;;;;;;;29.08;15.77;;;3.90;99.90;;;;;;6272437;22;20351;-70
2021/03/07 10:02:55;;;;;;;24.48;14.65;;;3.90;99.90;;;;;;6274077;22;20003;-69
2021/03/07 10:05:21;;;;;;;28.48;17.52;;;4.00;99.90;;;;;;6274377;22;20333;-70
2021/03/07 10:07:46;;;;;;;25.45;17.25;;;4.30;99.90;;;;;;6274177;22;20007;-71
2021/03/07 10:10:23;;;;;;;27.13;17.25;;;4.40;99.90;;;;;;6271260;22;20012;-69
2021/03/07 10:12:59;;;;;;;25.48;16.40;;;4.60;99.90;;;;;;6273300;22;20473;-72
2021/03/07 10:15:30;;;;;;;25.10;14.63;;;4.80;99.90;;;;;;6272622;22;20091;-70
2021/03/07 10:18:03;;;;;;;24.55;14.75;;;5.00;99.90;;;;;;6272234;22;20007;-71
2021/03/07 10:20:37;;;;;;;27.40;15.77;;;5.20;99.90;;;;;;6269177;22;20004;-72
2021/03/07 10:23:03;;;;;;;24.70;14.05;;;5.40;99.90;;;;;;6273802;22;20031;-70
2021/03/07 10:25:37;;;;;;;23.73;15.68;;;5.60;99.90;;;;;;6273533;22;20735;-72
2021/03/07 10:28:04;;;;;;;24.20;15.60;;;5.70;99.90;;;;;;6271719;22;20010;-71
2021/03/07 10:30:33;;;;;;;22.63;13.50;;;5.90;99.90;;;;;;6273804;22;20022;-72
2021/03/07 10:33:09;;;;;;;19.63;12.70;;;6.10;99.90;;;;;;6273770;22;19996;-71
2021/03/07 10:35:36;;;;;;;17.13;8.80;;;6.30;99.90;;;;;;6273148;22;20205;-71
2021/03/07 10:38:02;;;;;;;17.08;10.25;;;6.30;99.90;;;;;;6272436;22;20004;-71
2021/03/07 10:40:34;;;;;;;16.67;9.98;;;6.30;99.90;;;;;;6273633;22;20008;-71
2021/03/07 10:43:04;;;;;;;9.90;7.10;;;6.20;99.90;;;;;;6249242;22;20093;-71
2021/03/07 10:45:37;;;;;;;12.27;7.88;;;6.50;99.90;;;;;;6271321;22;20004;-71
2021/03/07 10:48:03;;;;;;;15.25;9.18;;;6.50;99.90;;;;;;6272886;22;20004;-71
2021/03/07 10:50:28;;;;;;;14.70;8.27;;;6.80;99.90;;;;;;6269974;22;20023;-70
2021/03/07 10:52:54;;;;;;;13.63;7.78;;;7.00;99.90;;;;;;6270832;22;20003;-71
2021/03/07 10:55:20;;;;;;;15.23;8.23;;;7.20;99.90;;;;;;6271083;22;20008;-71
2021/03/07 10:57:46;;;;;;;15.85;8.10;;;7.10;99.90;;;;;;6272128;22;20012;-70
2021/03/07 11:00:12;;;;;;;13.57;8.63;;;7.10;99.90;;;;;;6273035;22;20014;-70
2021/03/07 11:02:38;;;;;;;11.82;6.95;;;7.00;99.90;;;;;;6271232;22;20015;-72
2021/03/07 11:05:05;;;;;;;11.98;7.20;;;7.20;99.90;;;;;;6272049;22;20062;-71
2021/03/07 11:07:31;;;;;;;8.80;5.55;;;7.20;99.90;;;;;;6271755;22;20003;-71
2021/03/07 11:09:56;;;;;;;6.70;4.60;;;7.50;99.90;;;;;;6271900;22;20332;-70
2021/03/07 11:12:22;;;;;;;6.07;4.38;;;7.40;99.90;;;;;;6271351;22;20008;-70
2021/03/07 11:14:48;;;;;;;5.07;4.10;;;7.10;99.90;;;;;;6269791;22;20006;-70
2021/03/07 11:17:14;;;;;;;6.20;4.53;;;6.90;99.90;;;;;;6272781;22;20726;-72
2021/03/07 11:19:40;;;;;;;8.05;4.75;;;6.70;99.90;;;;;;6272169;22;20053;-70
2021/03/07 11:22:05;;;;;;;9.65;4.95;;;6.70;99.90;;;;;;6270300;22;20014;-70
2021/03/07 11:24:31;;;;;;;9.23;4.95;;;6.80;99.90;;;;;;6269741;22;20008;-71
2021/03/07 11:26:56;;;;;;;12.55;5.35;;;6.80;99.90;;;;;;6273108;22;20027;-72
2021/03/07 11:29:22;;;;;;;8.23;5.70;;;6.80;99.90;;;;;;6272058;22;20008;-71
2021/03/07 11:31:48;;;;;;;9.05;5.95;;;6.70;99.90;;;;;;6271044;22;20351;-72
2021/03/07 11:34:13;;;;;;;8.10;5.50;;;6.70;99.90;;;;;;6269213;22;20041;-72
2021/03/07 11:36:39;;;;;;;11.90;5.60;;;7.10;99.90;;;;;;6271698;22;20004;-70
2021/03/07 11:39:06;;;;;;;10.00;5.13;;;7.10;99.90;;;;;;6272613;22;19999;-72
2021/03/07 11:41:31;;;;;;;7.47;5.22;;;7.00;99.90;;;;;;6271313;22;20014;-70
2021/03/07 11:43:57;;;;;;;5.68;4.55;;;7.10;99.90;;;;;;6272327;22;20000;-70
2021/03/07 11:46:23;;;;;;;7.72;4.85;;;7.20;99.90;;;;;;6273690;22;20368;-71
2021/03/07 11:48:48;;;;;;;9.70;5.30;;;7.50;99.90;;;;;;6270890;22;20490;-71
2021/03/07 11:51:14;;;;;;;7.55;5.15;;;7.50;99.90;;;;;;6272182;22;20016;-71
2021/03/07 11:53:40;;;;;;;7.30;5.40;;;7.60;99.90;;;;;;6269742;22;20003;-71
2021/03/07 11:56:06;;;;;;;7.05;5.35;;;7.70;99.90;;;;;;6275279;22;20322;-71
2021/03/07 11:58:31;;;;;;;8.50;5.53;;;7.70;99.90;;;;;;6271950;22;20004;-71
2021/03/07 12:00:57;;;;;;;10.70;5.60;;;7.70;99.90;;;;;;6273147;22;20014;-71
2021/03/07 12:03:23;;;;;;;7.47;4.82;;;7.90;99.90;;;;;;6275157;22;20483;-70
2021/03/07 12:05:48;;;;;;;8.18;5.55;;;7.90;99.90;;;;;;6272710;22;20434;-70
2021/03/07 12:08:14;;;;;;;9.55;6.32;;;8.10;99.90;;;;;;6272782;22;20012;-70
2021/03/07 12:10:40;;;;;;;9.40;6.28;;;8.20;99.90;;;;;;6273658;22;20042;-72
2021/03/07 12:13:05;;;;;;;10.70;6.32;;;8.40;99.90;;;;;;6271438;22;20000;-71
2021/03/07 12:15:31;;;;;;;12.15;6.40;;;8.30;99.90;;;;;;6271695;22;20076;-71
2021/03/07 12:17:57;;;;;;;8.43;6.13;;;8.10;99.90;;;;;;6273002;22;20708;-71
2021/03/07 12:20:22;;;;;;;11.40;7.10;;;8.00;99.90;;;;;;6270812;22;20485;-71
2021/03/07 12:22:48;;;;;;;11.07;6.05;;;7.90;99.90;;;;;;6272731;22;20015;-72
2021/03/07 12:25:14;;;;;;;7.32;5.90;;;7.80;99.90;;;;;;6273840;22;20057;-71
2021/03/07 12:27:41;;;;;;;10.18;5.38;;;7.60;99.90;;;;;;6274159;22;20460;-73
2021/03/07 12:30:08;;;;;;;7.85;5.70;;;7.70;99.90;;;;;;6273258;22;20015;-74
2021/03/07 12:32:33;;;;;;;8.13;5.88;;;7.90;99.90;;;;;;6268672;22;19999;-72
2021/03/07 12:34:59;;;;;;;6.68;4.70;;;8.00;99.90;;;;;;6269636;22;20007;-73
2021/03/07 12:37:25;;;;;;;8.13;5.75;;;8.00;99.90;;;;;;6273097;22;20038;-74
2021/03/07 12:39:50;;;;;;;6.88;5.15;;;8.00;99.90;;;;;;6271449;22;20034;-73
2021/03/07 12:42:16;;;;;;;5.68;5.03;;;8.00;99.90;;;;;;6272120;22;19996;-73
2021/03/07 12:44:42;;;;;;;6.35;4.35;;;8.10;99.90;;;;;;6273894;22;20004;-73
2021/03/07 12:47:07;;;;;;;6.18;4.10;;;8.20;99.90;;;;;;6273457;22;20019;-73
2021/03/07 12:49:33;;;;;;;8.23;4.70;;;8.30;99.90;;;;;;6270709;22;20447;-73